Time;durP1;ratioP1;P1;durP2;ratioP2;P2;SDS_P1;SDS_P2;PMS_P1;PMS_P2;Temp;Humidity;BMP_temperature;BMP_pressure;BME280_temperature;BME280_humidity;BME280_pressure;Samples;Min_cycle;Max_cycle;Signal;HPM_P1;HPM_P2
2021/03/12 00:01:34;;;;;;;9.48;1.55;;;;;;;4.04;86.56;99507.94;6212004;23;20008;-75
2021/03/12 00:04:02;;;;;;;14.68;2.75;;;;;;;3.98;86.61;99502.44;6240358;23;20538;-75
2021/03/12 00:06:28;;;;;;;10.70;1.40;;;;;;;4.07;86.13;99518.28;6210643;23;20000;-74
2021/03/12 00:09:03;;;;;;;;;;;;;;;;;;;;;
2021/03/12 00:11:40;;;;;;;6.13;1.35;;;;;;;4.09;86.16;99516.13;6243281;23;20086;-73
2021/03/12 00:14:11;;;;;;;17.83;2.75;;;;;;;4.17;86.44;99518.44;6261791;22;20012;-72
2021/03/12 00:16:39;;;;;;;11.18;1.63;;;;;;;4.22;85.97;99526.66;6245925;23;20004;-73
2021/03/12 00:19:05;;;;;;;14.27;2.13;;;;;;;4.26;86.31;99522.38;6243744;23;20001;-73
2021/03/12 00:21:42;;;;;;;12.15;1.50;;;;;;;4.22;86.22;99510.41;6217577;23;20008;-72
2021/03/12 00:24:28;;;;;;;14.35;1.65;;;;;;;4.33;85.98;99514.09;6191143;23;20005;-72
2021/03/12 00:27:02;;;;;;;;;;;;;;;4.33;86.26;99506.78;6214358;23;20023;-73
2021/03/12 00:29:35;;;;;;;14.98;1.67;;;;;;;4.27;86.20;99493.44;6261399;22;19973;-72
2021/03/12 00:32:01;;;;;;;12.75;1.90;;;;;;;4.28;85.70;99504.00;6215448;23;20071;-73
2021/03/12 00:34:38;;;;;;;11.98;1.98;;;;;;;4.22;86.13;99494.19;6217449;23;20035;-73
2021/03/12 00:37:08;;;;;;;7.38;0.93;;;;;;;4.27;86.03;99502.38;6233026;23;20012;-75
2021/03/12 00:39:37;;;;;;;9.07;1.70;;;;;;;4.18;85.89;99487.63;6217442;23;20004;-74
2021/03/12 00:42:02;;;;;;;8.50;1.58;;;;;;;4.18;86.12;99490.31;6217215;23;20012;-72
2021/03/12 00:44:30;;;;;;;10.60;1.75;;;;;;;4.25;86.27;99490.97;6214330;23;20015;-73
2021/03/12 00:47:16;;;;;;;13.48;1.70;;;;;;;4.29;85.69;99494.84;6264122;22;20004;-73
2021/03/12 00:49:41;;;;;;;6.05;1.63;;;;;;;4.30;85.76;99491.03;6217409;23;20012;-73
2021/03/12 00:52:15;;;;;;;11.90;1.70;;;;;;;4.29;85.95;99491.28;6208432;23;20000;-75
2021/03/12 00:54:53;;;;;;;;;;;;;;;;;;;;;
2021/03/12 00:57:58;;;;;;;;;;;;;;;;;;;;;
2021/03/12 01:00:54;;;;;;;10.05;1.33;;;;;;;4.45;85.76;99493.16;6236510;23;20083;-75
2021/03/12 01:03:22;;;;;;;14.48;2.33;;;;;;;4.51;85.49;99507.59;6214928;23;20103;-75
2021/03/12 01:05:54;;;;;;;13.18;1.60;;;;;;;4.45;85.56;99481.50;6233867;23;20023;-75
2021/03/12 01:08:22;;;;;;;11.25;1.00;;;;;;;4.46;85.92;99486.66;6216866;23;20038;-75
2021/03/12 01:10:50;;;;;;;12.40;1.55;;;;;;;4.56;85.84;99502.25;6240700;23;20008;-75
2021/03/12 01:13:18;;;;;;;15.82;2.33;;;;;;;4.52;85.61;99490.28;6243915;23;20011;-73
2021/03/12 01:15:48;;;;;;;12.77;1.83;;;;;;;4.48;85.68;99489.13;6234703;23;20074;-72
2021/03/12 01:18:21;;;;;;;4.75;1.10;;;;;;;4.45;85.09;99492.34;6241484;23;20119;-72
2021/03/12 01:20:51;;;;;;;12.10;0.65;;;;;;;4.49;85.21;99493.47;6206231;23;20551;-73
2021/03/12 01:23:21;;;;;;;7.80;1.15;;;;;;;4.43;85.29;99489.88;6261052;22;20004;-71
2021/03/12 01:25:49;;;;;;;3.92;1.10;;;;;;;4.40;85.77;99478.75;6205796;23;20031;-73
2021/03/12 01:28:18;;;;;;;11.45;0.80;;;;;;;4.45;85.53;99476.09;6239884;22;20050;-72
2021/03/12 01:30:48;;;;;;;5.55;1.30;;;;;;;4.46;85.21;99477.75;6216199;23;20007;-73
2021/03/12 01:33:14;;;;;;;12.15;2.35;;;;;;;4.50;85.41;99468.88;6211520;23;20004;-71
2021/03/12 01:35:43;;;;;;;15.20;2.25;;;;;;;4.60;85.65;99478.19;6240009;23;20004;-73
2021/03/12 01:38:08;;;;;;;12.15;1.48;;;;;;;4.59;85.65;99474.69;6215250;23;20065;-74
2021/03/12 01:40:41;;;;;;;11.15;1.85;;;;;;;4.68;85.18;99472.34;6231635;23;20027;-71
2021/03/12 01:43:10;;;;;;;10.80;2.10;;;;;;;4.72;84.93;99476.22;6211846;23;20459;-72
2021/03/12 01:45:47;;;;;;;13.90;2.15;;;;;;;4.74;85.07;99473.25;6215232;23;20075;-73
2021/03/12 01:48:15;;;;;;;6.72;1.88;;;;;;;4.78;84.82;99474.41;6230614;23;20078;-75
2021/03/12 01:50:47;;;;;;;18.92;1.77;;;;;;;4.82;84.46;99464.66;6216023;23;20007;-73
2021/03/12 01:53:22;;;;;;;14.43;1.52;;;;;;;4.90;84.58;99473.19;6207397;23;20074;-73
2021/03/12 01:55:50;;;;;;;;;;;;;;;4.89;84.58;99466.13;6242405;23;20008;-73
2021/03/12 01:58:20;;;;;;;12.85;1.92;;;;;;;4.89;84.45;99454.47;6214744;23;19990;-75
2021/03/12 02:00:49;;;;;;;14.80;1.88;;;;;;;5.01;84.33;99457.88;6210639;23;20008;-76
2021/03/12 02:03:24;;;;;;;14.65;1.95;;;;;;;4.98;84.17;99442.13;6236906;23;20423;-73
2021/03/12 02:06:08;;;;;;;7.47;1.88;;;;;;;5.05;84.69;99450.06;6212272;23;20004;-72
2021/03/12 02:08:33;;;;;;;12.25;1.30;;;;;;;5.17;83.29;99449.91;6215215;23;20322;-74
2021/03/12 02:11:02;;;;;;;15.48;1.60;;;;;;;5.07;83.13;99429.75;6215088;23;20011;-73
2021/03/12 02:13:59;;;;;;;10.98;1.60;;;;;;;5.29;83.39;99447.09;6212824;23;20499;-74
2021/03/12 02:16:36;;;;;;;9.98;1.50;;;;;;;5.30;83.54;99443.28;6240061;23;20010;-72
2021/03/12 02:19:33;;;;;;;12.73;1.40;;;;;;;5.32;82.93;99452.81;6214422;23;20008;-72
2021/03/12 02:22:10;;;;;;;14.68;1.67;;;;;;;5.33;83.42;99440.88;6264673;22;20030;-73
2021/03/12 02:24:47;;;;;;;9.07;1.38;;;;;;;5.35;83.07;99430.59;6240266;22;20012;-74
2021/03/12 02:27:31;;;;;;;15.48;1.88;;;;;;;5.42;82.59;99420.38;6243147;23;20331;-74
2021/03/12 02:30:02;;;;;;;15.50;2.42;;;;;;;5.35;82.89;99419.75;6239330;23;20690;-73
2021/03/12 02:32:49;;;;;;;11.50;1.88;;;;;;;5.48;82.50;99433.97;6244434;23;20027;-72
2021/03/12 02:35:18;;;;;;;16.67;3.22;;;;;;;5.39;82.17;99420.88;6212215;23;20373;-72
2021/03/12 02:37:56;;;;;;;27.23;2.97;;;;;;;5.42;81.91;99424.97;6216200;23;20423;-73
2021/03/12 02:40:30;;;;;;;21.95;2.20;;;;;;;5.38;82.38;99413.81;6208362;23;20000;-71
2021/03/12 02:42:56;;;;;;;10.00;1.70;;;;;;;5.47;82.61;99426.91;6216771;23;20182;-71
2021/03/12 02:45:31;;;;;;;11.40;1.58;;;;;;;5.40;82.38;99400.84;6213013;23;20043;-72
2021/03/12 02:47:57;;;;;;;4.10;1.42;;;;;;;5.37;82.54;99390.50;6240072;23;20008;-74
2021/03/12 02:50:31;;;;;;;9.82;1.80;;;;;;;5.45;82.86;99393.78;6212914;23;20007;-73
2021/03/12 02:53:04;;;;;;;18.83;1.83;;;;;;;5.51;82.75;99412.59;6234710;23;19996;-73
2021/03/12 02:55:39;;;;;;;19.23;2.03;;;;;;;5.41;82.19;99385.38;6215243;23;20091;-73
2021/03/12 02:58:12;;;;;;;11.85;1.92;;;;;;;5.45;82.81;99378.38;6238656;23;20004;-72
2021/03/12 03:00:43;;;;;;;14.52;1.98;;;;;;;5.52;82.20;99386.28;6203071;23;20008;-72
2021/03/12 03:03:10;;;;;;;11.68;2.28;;;;;;;5.57;82.69;99378.19;6213326;23;20000;-71
2021/03/12 03:05:36;;;;;;;15.18;2.78;;;;;;;5.60;83.04;99372.25;6213987;23;20008;-71
2021/03/12 03:08:04;;;;;;;16.85;2.45;;;;;;;5.66;83.11;99368.50;6209333;23;20094;-72
2021/03/12 03:10:35;;;;;;;17.65;2.78;;;;;;;5.82;82.56;99372.13;6214141;23;20004;-72
2021/03/12 03:13:02;;;;;;;19.65;2.80;;;;;;;5.89;81.94;99396.34;6215779;23;20030;-73
2021/03/12 03:15:31;;;;;;;14.07;1.77;;;;;;;5.93;82.13;99378.47;6213829;23;20015;-73
2021/03/12 03:17:57;;;;;;;15.88;2.53;;;;;;;6.02;81.60;99376.94;6213520;23;20000;-72
2021/03/12 03:20:25;;;;;;;13.93;1.45;;;;;;;6.00;81.98;99370.97;6258658;22;20007;-74
2021/03/12 03:22:56;;;;;;;26.42;3.42;;;;;;;6.02;81.61;99368.78;6215740;23;20035;-73
2021/03/12 03:25:26;;;;;;;13.13;2.28;;;;;;;5.95;82.09;99392.59;6216186;23;20008;-74
2021/03/12 03:27:54;;;;;;;20.85;2.60;;;;;;;5.91;81.65;99362.47;6238995;23;20547;-73
2021/03/12 03:30:21;;;;;;;16.40;1.95;;;;;;;5.93;81.84;99367.63;6265592;22;20042;-73
2021/03/12 03:32:46;;;;;;;19.13;1.70;;;;;;;5.95;83.23;99357.31;6241394;23;20062;-72
2021/03/12 03:35:13;;;;;;;27.02;2.78;;;;;;;5.81;83.40;99345.28;6237169;23;20016;-72
2021/03/12 03:37:41;;;;;;;7.35;1.50;;;;;;;5.74;84.61;99335.47;6242685;23;20007;-70
2021/03/12 03:40:13;;;;;;;11.20;1.35;;;;;;;5.86;83.80;99345.31;6241189;23;20007;-71
2021/03/12 03:42:47;;;;;;;24.50;2.42;;;;;;;5.84;84.61;99355.59;6240381;23;20071;-71
2021/03/12 03:45:16;;;;;;;20.25;2.17;;;;;;;5.82;84.69;99353.16;6242990;23;20012;-72
2021/03/12 03:47:44;;;;;;;5.60;1.23;;;;;;;5.72;84.88;99351.19;6239518;23;20020;-71
2021/03/12 03:50:19;;;;;;;15.30;2.38;;;;;;;5.73;84.70;99360.97;6238499;23;20007;-70
2021/03/12 03:52:46;;;;;;;23.75;1.63;;;;;;;5.66;85.13;99338.66;6214848;23;20008;-70
2021/03/12 03:55:15;;;;;;;11.43;1.42;;;;;;;5.64;84.86;99357.09;6217922;23;20078;-72
2021/03/12 03:57:49;;;;;;;12.48;2.15;;;;;;;5.60;85.16;99334.28;6212470;23;20008;-72
2021/03/12 04:00:16;;;;;;;17.52;2.03;;;;;;;5.47;85.50;99329.31;6210630;23;20032;-70
2021/03/12 04:02:46;;;;;;;4.95;0.60;;;;;;;5.40;85.88;99340.34;6243371;23;20008;-71
2021/03/12 04:05:13;;;;;;;6.88;1.02;;;;;;;5.37;85.81;99322.72;6268671;22;20012;-72
2021/03/12 04:08:08;;;;;;;;;;;;;;;;;;;;;
2021/03/12 04:10:36;;;;;;;11.00;1.50;;;;;;;5.27;85.40;99314.50;6243424;23;20088;-72
2021/03/12 04:13:21;;;;;;;4.40;0.88;;;;;;;5.16;85.31;99313.59;6192007;23;20015;-72
2021/03/12 04:15:47;;;;;;;11.35;0.93;;;;;;;5.08;86.03;99327.59;6217252;23;20000;-72
2021/03/12 04:18:14;;;;;;;7.68;0.93;;;;;;;5.04;86.08;99307.53;6242906;23;20030;-71
2021/03/12 04:20:43;;;;;;;7.68;1.73;;;;;;;4.98;85.89;99301.25;6236447;22;20035;-75
2021/03/12 04:23:09;;;;;;;9.80;1.45;;;;;;;4.94;85.91;99302.00;6242343;23;20068;-73
2021/03/12 04:25:42;;;;;;;7.40;1.02;;;;;;;4.92;85.84;99312.28;6211318;23;20012;-74
2021/03/12 04:28:08;;;;;;;9.48;1.20;;;;;;;4.85;85.67;99298.94;6236105;22;20035;-74
2021/03/12 04:30:35;;;;;;;10.20;1.40;;;;;;;4.79;85.85;99289.09;6217696;23;20389;-71
2021/03/12 04:33:08;;;;;;;7.95;0.80;;;;;;;4.72;85.77;99273.88;6215463;23;20008;-72
2021/03/12 04:35:36;;;;;;;7.47;1.20;;;;;;;4.71;86.24;99277.66;6241877;23;20038;-72
2021/03/12 04:38:03;;;;;;;4.10;1.15;;;;;;;4.76;85.84;99270.66;6215593;23;20012;-72
2021/03/12 04:40:29;;;;;;;4.93;0.52;;;;;;;4.75;86.07;99274.47;6213228;23;20015;-72
2021/03/12 04:42:55;;;;;;;2.72;0.60;;;;;;;4.79;86.11;99280.97;6244902;23;20104;-72
2021/03/12 04:45:25;;;;;;;5.13;0.60;;;;;;;4.87;86.93;99278.63;6242672;23;20000;-75
2021/03/12 04:47:57;;;;;;;6.93;1.15;;;;;;;4.92;86.63;99275.19;6212238;23;20015;-72
2021/03/12 04:50:26;;;;;;;7.97;0.90;;;;;;;4.97;86.62;99266.28;6242439;23;20281;-73
2021/03/12 04:52:56;;;;;;;4.35;1.13;;;;;;;5.06;86.16;99270.13;6241009;23;20309;-73
2021/03/12 04:55:30;;;;;;;10.25;1.38;;;;;;;5.15;86.88;99270.47;6241383;23;20004;-73
2021/03/12 04:57:55;;;;;;;17.10;1.63;;;;;;;5.22;86.32;99268.38;6240754;23;20004;-73
2021/03/12 05:00:23;;;;;;;13.20;1.75;;;;;;;5.29;86.13;99257.31;6212634;23;20043;-72
2021/03/12 05:02:50;;;;;;;9.68;1.50;;;;;;;5.30;86.02;99259.78;6212981;23;20016;-73
2021/03/12 05:05:16;;;;;;;16.58;2.42;;;;;;;5.27;85.99;99260.31;6214150;23;20000;-73
2021/03/12 05:07:45;;;;;;;13.73;1.75;;;;;;;5.37;85.85;99260.38;6240738;23;20038;-73
2021/03/12 05:10:12;;;;;;;9.13;1.83;;;;;;;5.45;85.36;99264.47;6242263;23;20223;-73
2021/03/12 05:12:40;;;;;;;7.90;0.93;;;;;;;5.47;85.37;99245.25;6243494;23;20007;-74
2021/03/12 05:15:06;;;;;;;12.07;1.70;;;;;;;5.52;84.37;99248.81;6212950;23;20035;-73
2021/03/12 05:17:31;;;;;;;12.82;1.23;;;;;;;5.50;84.58;99225.72;6244213;23;20050;-72
2021/03/12 05:19:57;;;;;;;11.57;1.52;;;;;;;5.48;85.10;99222.47;6213793;23;20015;-73
2021/03/12 05:22:25;;;;;;;11.85;1.25;;;;;;;5.40;83.89;99215.63;6240773;23;20082;-74
2021/03/12 05:24:50;;;;;;;19.83;2.33;;;;;;;5.46;84.24;99219.19;6245667;23;20103;-74
2021/03/12 05:27:16;;;;;;;19.17;1.75;;;;;;;5.36;84.30;99226.19;6231426;22;20054;-73
2021/03/12 05:29:42;;;;;;;7.35;1.13;;;;;;;5.33;84.13;99207.75;6216984;23;20023;-73
2021/03/12 05:32:09;;;;;;;14.35;1.77;;;;;;;5.44;84.66;99215.94;6239279;23;20288;-72
2021/03/12 05:34:37;;;;;;;5.05;1.23;;;;;;;5.47;83.43;99210.81;6241666;23;20000;-73
2021/03/12 05:37:05;;;;;;;13.05;1.40;;;;;;;5.45;83.94;99217.56;6242810;23;20050;-72
2021/03/12 05:39:31;;;;;;;7.38;1.30;;;;;;;5.45;83.30;99217.56;6239874;23;20034;-73
2021/03/12 05:41:57;;;;;;;12.77;1.25;;;;;;;5.50;83.41;99221.13;6213813;23;20026;-72
2021/03/12 05:44:25;;;;;;;7.05;1.77;;;;;;;5.45;83.54;99212.13;6242287;23;20327;-72
2021/03/12 05:46:51;;;;;;;14.68;2.30;;;;;;;5.40;83.26;99208.34;6236770;23;20011;-73
2021/03/12 05:49:17;;;;;;;7.07;0.77;;;;;;;5.46;83.13;99202.94;6215811;23;20015;-73
2021/03/12 05:51:43;;;;;;;6.32;1.38;;;;;;;5.42;83.57;99203.44;6239587;23;20015;-73
2021/03/12 05:54:09;;;;;;;16.70;2.13;;;;;;;5.34;83.44;99190.38;6215984;23;20031;-72
2021/03/12 05:56:37;;;;;;;5.18;0.95;;;;;;;5.45;84.08;99195.88;6242964;23;20030;-72
2021/03/12 05:59:04;;;;;;;6.28;1.20;;;;;;;5.42;83.91;99198.03;6238960;23;20028;-73
2021/03/12 06:01:31;;;;;;;9.20;0.98;;;;;;;5.40;83.75;99186.66;6236172;23;20538;-73
2021/03/12 06:03:56;;;;;;;5.57;0.75;;;;;;;5.47;84.03;99193.72;6212421;23;20427;-73
2021/03/12 06:06:31;;;;;;;15.68;1.13;;;;;;;5.48;84.27;99187.22;6238462;23;20139;-72
2021/03/12 06:08:57;;;;;;;9.60;0.98;;;;;;;5.49;84.39;99173.41;6213676;23;20039;-73
2021/03/12 06:11:25;;;;;;;6.50;1.77;;;;;;;5.54;84.00;99168.00;6208364;23;20054;-74
2021/03/12 06:13:56;;;;;;;6.35;0.95;;;;;;;5.62;84.82;99174.81;6241261;23;20060;-73
2021/03/12 06:16:29;;;;;;;19.63;1.80;;;;;;;5.63;84.71;99176.44;6243252;23;20671;-73
2021/03/12 06:19:21;;;;;;;8.88;1.70;;;;;;;5.72;84.58;99174.88;6241623;23;20004;-71
2021/03/12 06:21:51;;;;;;;6.90;1.60;;;;;;;5.66;84.81;99165.06;6227889;23;20461;-71
2021/03/12 06:24:31;;;;;;;4.43;1.42;;;;;;;5.69;84.66;99153.69;6211289;23;20001;-72
2021/03/12 06:26:57;;;;;;;8.38;1.00;;;;;;;5.80;84.76;99164.56;6242423;23;20625;-72
2021/03/12 06:29:37;;;;;;;5.95;0.88;;;;;;;5.79;85.25;99154.81;6212561;23;20331;-72
2021/03/12 06:32:05;;;;;;;9.95;0.95;;;;;;;5.83;85.13;99164.06;6240935;23;20015;-71
2021/03/12 06:34:32;;;;;;;8.02;1.20;;;;;;;5.83;84.95;99153.22;6238826;23;20008;-73
2021/03/12 06:36:58;;;;;;;10.13;1.38;;;;;;;5.93;85.41;99164.09;6235149;23;20004;-73
2021/03/12 06:39:33;;;;;;;13.65;2.25;;;;;;;5.97;84.72;99154.34;6242404;23;20111;-71
2021/03/12 06:42:15;;;;;;;15.93;2.10;;;;;;;6.00;84.60;99137.56;6241274;23;20427;-73
2021/03/12 06:44:43;;;;;;;22.85;2.45;;;;;;;6.04;84.38;99145.97;6242691;23;20027;-72
2021/03/12 06:47:08;;;;;;;15.55;1.40;;;;;;;6.20;84.00;99155.78;6234373;23;20091;-72
2021/03/12 06:49:53;;;;;;;15.38;2.35;;;;;;;6.24;84.52;99142.50;6239770;23;20036;-71
2021/03/12 06:52:18;;;;;;;6.22;1.75;;;;;;;6.26;84.31;99134.91;6208935;23;20012;-73
2021/03/12 06:54:54;;;;;;;13.77;1.60;;;;;;;6.32;84.00;99139.25;6241002;23;20038;-71
2021/03/12 06:57:21;;;;;;;4.55;1.42;;;;;;;6.36;84.53;99118.63;6239230;23;20445;-71
2021/03/12 06:59:57;;;;;;;22.02;1.70;;;;;;;6.43;83.42;99113.72;6237994;23;20075;-72
2021/03/12 07:02:35;;;;;;;7.28;1.02;;;;;;;6.50;83.60;99118.91;6241808;23;20004;-71
2021/03/12 07:05:01;;;;;;;10.55;1.60;;;;;;;6.53;82.90;99107.50;6238844;23;20339;-73
2021/03/12 07:07:38;;;;;;;6.50;1.35;;;;;;;6.57;82.77;99107.75;6240516;23;20004;-71
2021/03/12 07:10:12;;;;;;;17.67;1.83;;;;;;;6.59;82.73;99105.59;6234191;23;20335;-73
2021/03/12 07:13:02;;;;;;;11.55;1.20;;;;;;;6.66;82.42;99106.16;6233708;23;20007;-73
2021/03/12 07:15:30;;;;;;;15.20;2.15;;;;;;;6.70;82.06;99111.84;6239205;23;20004;-73
2021/03/12 07:17:55;;;;;;;16.25;2.17;;;;;;;6.67;81.56;99083.31;6209509;23;20038;-72
2021/03/12 07:20:31;;;;;;;12.60;2.28;;;;;;;6.75;81.99;99088.19;6239109;23;20168;-71
2021/03/12 07:22:58;;;;;;;12.35;1.45;;;;;;;6.81;81.49;99094.44;6244782;23;20441;-73
2021/03/12 07:25:24;;;;;;;25.80;2.38;;;;;;;6.90;80.89;99094.72;6240881;23;20008;-72
2021/03/12 07:27:52;;;;;;;11.43;2.03;;;;;;;7.02;81.50;99114.25;6215587;23;20024;-73
2021/03/12 07:30:18;;;;;;;13.57;1.67;;;;;;;7.02;81.31;99092.50;6243464;23;20008;-73
2021/03/12 07:32:45;;;;;;;17.25;1.90;;;;;;;7.07;80.58;99081.63;6193127;23;20012;-72
2021/03/12 07:35:12;;;;;;;34.33;2.72;;;;;;;7.11;80.27;99079.16;6231287;23;20046;-73
2021/03/12 07:37:38;;;;;;;22.27;2.20;;;;;;;7.09;81.05;99071.28;6237558;23;20004;-71
2021/03/12 07:40:05;;;;;;;10.80;1.70;;;;;;;7.20;81.59;99061.22;6242541;23;20066;-73
2021/03/12 07:42:32;;;;;;;14.63;1.60;;;;;;;7.12;81.36;99075.34;6217563;23;20016;-72
2021/03/12 07:44:58;;;;;;;16.95;2.85;;;;;;;7.11;82.47;99096.31;6246042;23;20082;-74
2021/03/12 07:47:34;;;;;;;24.85;2.28;;;;;;;6.98;84.02;99069.69;6216915;23;20331;-75
2021/03/12 07:50:00;;;;;;;10.55;2.42;;;;;;;6.67;85.29;99074.34;6215371;23;20060;-73
2021/03/12 07:52:51;;;;;;;17.38;3.97;;;;;;;6.38;85.76;99100.16;6240383;23;20423;-73
2021/03/12 07:55:35;;;;;;;7.53;1.27;;;;;;;6.37;87.00;99109.41;6215958;23;20441;-72
2021/03/12 07:58:04;;;;;;;15.18;1.33;;;;;;;6.14;86.77;99109.91;6209108;23;20115;-72
2021/03/12 08:00:30;;;;;;;7.55;1.25;;;;;;;6.14;87.01;99116.16;6243900;23;20012;-73
2021/03/12 08:03:01;;;;;;;10.73;1.23;;;;;;;6.02;87.63;99121.81;6211384;23;20446;-72
2021/03/12 08:05:45;;;;;;;6.10;1.05;;;;;;;6.13;87.41;99111.00;6241993;23;20386;-72
2021/03/12 08:08:30;;;;;;;15.30;1.13;;;;;;;5.98;86.43;99112.59;6205959;23;20062;-72
2021/03/12 08:11:36;;;;;;;1.43;0.50;;;;;;;5.86;86.15;99125.56;6242109;23;20016;-70
2021/03/12 08:14:17;;;;;;;2.30;0.50;;;;;;;5.97;86.79;99138.06;6148197;23;20242;-73
2021/03/12 08:16:58;;;;;;;1.98;0.35;;;;;;;5.89;85.24;99154.88;6235774;23;20065;-72
2021/03/12 08:20:12;;;;;;;0.30;0.10;;;;;;;5.86;85.83;99149.97;6214752;23;20043;-73
2021/03/12 08:23:07;;;;;;;0.68;0.30;;;;;;;5.77;86.11;99134.19;6242014;23;20035;-71
2021/03/12 08:25:32;;;;;;;1.45;0.52;;;;;;;5.65;86.55;99130.91;6232055;23;20386;-71
2021/03/12 08:28:07;;;;;;;1.05;0.25;;;;;;;5.61;86.96;99129.81;6209635;22;20048;-71
2021/03/12 08:30:46;;;;;;;2.40;0.33;;;;;;;5.71;86.34;99134.44;6258466;22;20012;-72
2021/03/12 08:33:20;;;;;;;2.65;0.20;;;;;;;5.85;86.50;99118.50;6260548;22;20007;-71
2021/03/12 08:35:50;;;;;;;1.73;0.40;;;;;;;5.95;86.39;99113.91;6251801;22;20071;-71
2021/03/12 08:38:35;;;;;;;;;;;;;;;;;;;;;
2021/03/12 08:41:13;;;;;;;0.73;0.25;;;;;;;6.47;85.75;99114.81;6209572;23;20071;-73
2021/03/12 08:44:13;;;;;;;6.80;0.65;;;;;;;6.60;84.44;99112.66;6260637;22;20012;-72
2021/03/12 08:46:39;;;;;;;1.80;0.40;;;;;;;6.61;84.95;99109.69;6207305;23;20079;-73
2021/03/12 08:49:10;;;;;;;1.65;0.40;;;;;;;6.64;84.66;99102.88;6211134;23;20327;-73
2021/03/12 08:51:40;;;;;;;2.13;0.30;;;;;;;6.77;85.04;99101.50;6210366;23;20016;-72
2021/03/12 08:54:07;;;;;;;4.63;0.55;;;;;;;6.81;84.86;99108.84;6213126;23;20349;-72
2021/03/12 08:56:34;;;;;;;1.40;0.50;;;;;;;6.99;84.43;99117.50;6215011;23;20005;-72
2021/03/12 08:59:12;;;;;;;0.98;0.77;;;;;;;7.09;84.64;99116.69;6211214;23;20003;-71
2021/03/12 09:01:40;;;;;;;6.70;0.32;;;;;;;7.22;84.03;99118.03;6262946;22;20007;-71
2021/03/12 09:04:11;;;;;;;5.15;0.22;;;;;;;7.33;83.89;99115.00;6210180;23;20013;-74
2021/03/12 09:06:50;;;;;;;0.52;0.20;;;;;;;7.43;83.08;99125.03;6206338;23;20031;-72
2021/03/12 09:09:28;;;;;;;;;;;;;;;;;;;;;
2021/03/12 09:11:59;;;;;;;0.95;0.30;;;;;;;7.68;82.52;99132.28;6211179;23;20087;-72
2021/03/12 09:14:25;;;;;;;0.63;0.30;;;;;;;7.74;81.77;99133.09;6207025;23;20016;-73
2021/03/12 09:17:03;;;;;;;1.13;0.32;;;;;;;7.83;80.43;99112.34;6261974;22;20016;-73
2021/03/12 09:19:29;;;;;;;0.63;0.40;;;;;;;8.01;81.01;99131.84;6203421;23;20293;-72
2021/03/12 09:21:57;;;;;;;2.72;0.30;;;;;;;8.25;80.01;99140.19;6259143;22;20095;-71
2021/03/12 09:24:30;;;;;;;0.73;0.35;;;;;;;8.27;80.44;99137.16;6212496;23;20489;-73
2021/03/12 09:26:57;;;;;;;2.15;0.45;;;;;;;8.16;79.44;99133.66;6209059;23;20016;-72
2021/03/12 09:29:38;;;;;;;7.47;0.60;;;;;;;8.19;79.53;99149.44;6207965;23;20048;-72
2021/03/12 09:32:11;;;;;;;6.32;0.60;;;;;;;8.24;80.15;99132.28;6212262;23;20067;-71
2021/03/12 09:34:41;;;;;;;0.75;0.25;;;;;;;8.36;79.84;99122.66;6200937;23;20012;-73
2021/03/12 09:37:07;;;;;;;4.28;0.73;;;;;;;8.50;79.31;99133.75;6160672;23;20013;-76
2021/03/12 09:39:43;;;;;;;2.15;0.65;;;;;;;8.83;78.76;99125.84;6211650;23;20087;-76
2021/03/12 09:42:28;;;;;;;;;;;;;;;;;;;;;
2021/03/12 09:45:03;;;;;;;1.90;0.73;;;;;;;9.47;73.92;99130.41;6216254;23;20067;-76
2021/03/12 09:47:31;;;;;;;1.77;0.57;;;;;;;10.09;72.18;99139.47;6211623;23;20005;-78
2021/03/12 09:49:57;;;;;;;4.07;0.90;;;;;;;10.60;71.83;99143.41;6189003;23;20059;-75
2021/03/12 09:52:24;;;;;;;3.45;0.57;;;;;;;11.48;69.43;99136.41;6165069;23;20012;-77
2021/03/12 09:55:03;;;;;;;;;;;;;;;;;;;;;
2021/03/12 09:57:29;;;;;;;7.53;0.30;;;;;;;12.83;66.19;99157.06;6217537;23;20078;-76
2021/03/12 09:59:54;;;;;;;2.03;1.20;;;;;;;13.37;64.63;99152.41;6216794;23;20063;-75
2021/03/12 10:02:28;;;;;;;4.93;0.80;;;;;;;13.92;62.13;99153.91;6216609;23;20028;-75
2021/03/12 10:05:01;;;;;;;1.38;0.65;;;;;;;13.91;62.26;99149.53;6213607;23;20001;-76
2021/03/12 10:07:58;;;;;;;2.30;0.50;;;;;;;14.46;60.09;99150.91;6265365;22;20327;-80
2021/03/12 10:10:25;;;;;;;;;;;;;;;15.05;57.03;99155.09;6212821;22;20494;-79
2021/03/12 10:12:54;;;;;;;4.53;0.52;;;;;;;14.69;57.00;99139.78;6216246;23;20326;-78
2021/03/12 10:15:25;;;;;;;9.13;0.68;;;;;;;14.65;54.35;99158.06;6216517;23;20033;-78
2021/03/12 10:18:13;;;;;;;;;;;;;;;;;;;;;
2021/03/12 10:20:39;;;;;;;3.15;0.77;;;;;;;13.97;57.64;99139.22;6217674;23;20084;-77
2021/03/12 10:23:28;;;;;;;6.13;1.05;;;;;;;13.60;61.08;99139.44;6189226;23;20005;-77
2021/03/12 10:25:53;;;;;;;4.40;0.70;;;;;;;13.63;59.88;99143.47;6217890;23;20004;-77
2021/03/12 10:28:58;;;;;;;;;;;;;;;;;;;;;
2021/03/12 10:31:24;;;;;;;7.38;1.35;;;;;;;15.84;54.51;99136.41;6249193;23;20091;-73
2021/03/12 10:33:59;;;;;;;10.13;1.45;;;;;;;16.67;51.67;99144.25;6246217;23;20310;-74
2021/03/12 10:36:39;;;;;;;;;;;;;;;;;;;;;
2021/03/12 10:39:07;;;;;;;3.28;1.15;;;;;;;15.52;51.02;99135.88;6226051;23;20087;-76
2021/03/12 10:41:33;;;;;;;6.22;0.88;;;;;;;14.57;53.18;99129.41;6223588;23;20008;-75
2021/03/12 10:44:14;;;;;;;;;;;;;;;;;;;;;
2021/03/12 10:46:47;;;;;;;6.22;0.95;;;;;;;13.37;58.58;99143.38;6249865;23;20375;-72
2021/03/12 10:49:28;;;;;;;4.97;1.38;;;;;;;13.38;57.18;99140.31;6246791;23;20383;-77
2021/03/12 10:51:54;;;;;;;6.57;0.90;;;;;;;13.51;57.93;99157.81;6245958;23;20004;-77
2021/03/12 10:54:28;;;;;;;5.60;1.88;;;;;;;13.51;56.83;99143.28;6218728;23;20027;-76
2021/03/12 10:56:56;;;;;;;3.03;1.25;;;;;;;13.22;56.42;99150.06;6270078;22;20104;-74
2021/03/12 10:59:22;;;;;;;4.85;0.93;;;;;;;13.15;53.29;99153.25;6244448;23;20756;-74
2021/03/12 11:01:49;;;;;;;8.73;1.33;;;;;;;12.63;52.94;99141.91;6218964;23;20062;-76
2021/03/12 11:04:17;;;;;;;4.80;1.05;;;;;;;12.25;54.55;99161.44;6218497;23;20016;-73
2021/03/12 11:06:43;;;;;;;2.72;1.02;;;;;;;12.07;54.03;99157.72;6249321;23;20004;-77
2021/03/12 11:09:13;;;;;;;6.45;1.20;;;;;;;11.68;55.76;99179.00;6246582;23;20004;-76
2021/03/12 11:11:44;;;;;;;3.83;1.40;;;;;;;11.58;58.04;99162.75;6222714;23;20008;-76
2021/03/12 11:14:10;;;;;;;2.75;0.80;;;;;;;11.68;58.36;99168.88;6221380;23;20324;-78
2021/03/12 11:16:38;;;;;;;5.18;1.00;;;;;;;11.81;56.19;99177.38;6247102;23;20043;-76
2021/03/12 11:19:03;;;;;;;6.38;1.38;;;;;;;11.99;54.36;99164.72;6246674;23;20027;-75
2021/03/12 11:21:31;;;;;;;6.55;1.25;;;;;;;12.29;54.27;99179.69;6221301;23;20008;-75
2021/03/12 11:23:58;;;;;;;9.63;1.23;;;;;;;12.57;52.66;99207.88;6219573;23;20004;-76
2021/03/12 11:26:28;;;;;;;4.65;0.98;;;;;;;12.77;52.75;99175.59;6246805;23;20383;-78
2021/03/12 11:28:54;;;;;;;7.57;2.33;;;;;;;12.97;52.35;99168.78;6251059;23;20473;-78
2021/03/12 11:31:20;;;;;;;5.28;2.03;;;;;;;13.24;52.00;99172.50;6222109;23;20008;-79
2021/03/12 11:33:45;;;;;;;4.82;1.20;;;;;;;13.07;50.68;99179.50;6221686;23;20007;-76
2021/03/12 11:36:13;;;;;;;7.93;1.52;;;;;;;12.89;51.66;99188.75;6217877;23;20027;-77
2021/03/12 11:38:41;;;;;;;7.30;1.30;;;;;;;12.70;51.25;99176.03;6191160;23;20004;-75
2021/03/12 11:41:06;;;;;;;4.18;0.93;;;;;;;12.62;51.26;99179.50;6247220;23;20050;-78
2021/03/12 11:43:32;;;;;;;4.47;2.17;;;;;;;12.54;50.87;99172.00;6220538;23;20016;-75
2021/03/12 11:46:00;;;;;;;12.30;1.35;;;;;;;12.95;48.77;99170.22;6220345;23;20084;-76
2021/03/12 11:48:38;;;;;;;;;;;;;;;;;;;;;
2021/03/12 11:51:17;;;;;;;;;;;;;;;;;;;;;
2021/03/12 11:53:46;;;;;;;5.55;1.20;;;;;;;14.86;47.09;99168.44;6247304;23;20087;-78
2021/03/12 11:56:11;;;;;;;5.47;1.42;;;;;;;15.24;42.33;99206.25;6272533;22;20004;-76
2021/03/12 11:58:37;;;;;;;3.08;1.27;;;;;;;15.20;43.13;99195.09;6245235;23;20023;-78
2021/03/12 12:01:02;;;;;;;4.70;1.85;;;;;;;15.57;42.75;99178.16;6219764;23;20073;-78
2021/03/12 12:03:28;;;;;;;3.58;1.38;;;;;;;15.77;43.50;99174.66;6251077;23;20015;-78
2021/03/12 12:05:53;;;;;;;3.75;0.95;;;;;;;16.46;41.36;99169.88;6251062;23;20078;-78
2021/03/12 12:08:19;;;;;;;2.30;0.73;;;;;;;17.03;40.26;99189.75;6222294;23;20027;-77
2021/03/12 12:10:44;;;;;;;3.22;1.33;;;;;;;16.56;38.87;99186.03;6275655;22;20419;-77
2021/03/12 12:13:10;;;;;;;7.90;1.73;;;;;;;16.13;39.75;99165.06;6225067;23;20004;-77
2021/03/12 12:15:35;;;;;;;9.93;1.42;;;;;;;16.71;40.59;99211.44;6199001;23;20438;-77